PWSweather.com
Personal Weather Stations
Station Observations
KMNGREYC2
Grey Cloud Island, Grey Cloud Island, MN 55071

Grey Cloud IslandGrey Cloud Island, MN 55071

Lat: 44.799333, Lon: -92.987851

Elevation: 700

Station Type: Davis VP2

www.jagielski.com/weather/conditions.htm

High Low Average
Temperature 73.0°F22.8°C 65.0°F18.3°C 68.7°F20.4°C
Dew Point 69.2°F20.7°C 62.9°F17.2°C 65.9°F18.8°C
Winds 2.0 mph 3.2 kmh Calm Calm Calm WSWCalm WSW
Wind Gusts 4.0 mph6.4 kmh -- 1.0 mph1.6 kmh
Humidity 97% 83% 91%
Pressure 29.81 in1009.5 mb 29.51 in999.3 mb -
Precipitation 0.00 in0.0 mm - -
Hour Temp Dew Point Humidity Winds Wind Gusts Pressure Precip Precip Rate Daily Precip Total
12:00 AM 67.5°F19.7°C 63.8°F17.7°C 88% Calm Calm -- 29.81 in1009.5 mb 0.00 in0.0 mm 0.00 in0.0 mm 0.00 in0.0 mm
12:15 AM 67.4°F19.7°C 64.1°F17.8°C 89% Calm Calm -- 29.81 in1009.5 mb 0.00 in0.0 mm 0.00 in0.0 mm 0.00 in0.0 mm
12:30 AM 67.2°F19.6°C 63.9°F17.7°C 89% Calm Calm -- 29.81 in1009.5 mb 0.00 in0.0 mm 0.00 in0.0 mm 0.00 in0.0 mm
12:45 AM 67.0°F19.4°C 63.3°F17.4°C 88% Calm Calm -- 29.80 in1009.1 mb 0.00 in0.0 mm 0.00 in0.0 mm 0.00 in0.0 mm
01:00 AM 66.8°F19.3°C 63.1°F17.3°C 88% Calm Calm -- 29.80 in1009.1 mb 0.00 in0.0 mm 0.00 in0.0 mm 0.00 in0.0 mm
01:15 AM 66.6°F19.2°C 62.9°F17.2°C 88% Calm Calm 1.0 mph1.6 kmh 29.81 in1009.5 mb 0.00 in0.0 mm 0.00 in0.0 mm 0.00 in0.0 mm
01:30 AM 66.5°F19.2°C 63.2°F17.3°C 89% Calm Calm 1.0 mph1.6 kmh 29.81 in1009.5 mb 0.00 in0.0 mm 0.00 in0.0 mm 0.00 in0.0 mm
01:45 AM 66.4°F19.1°C 63.1°F17.3°C 89% Calm Calm -- 29.81 in1009.5 mb 0.00 in0.0 mm 0.00 in0.0 mm 0.00 in0.0 mm
02:00 AM 66.5°F19.2°C 63.2°F17.3°C 89% Calm Calm 1.0 mph1.6 kmh 29.80 in1009.1 mb 0.00 in0.0 mm 0.00 in0.0 mm 0.00 in0.0 mm
02:15 AM 66.7°F19.3°C 63.4°F17.4°C 89% Calm Calm 2.0 mph3.2 kmh 29.80 in1009.1 mb 0.00 in0.0 mm 0.00 in0.0 mm 0.00 in0.0 mm
02:30 AM 67.1°F19.5°C 63.1°F17.3°C 87% Calm Calm 3.0 mph4.8 kmh 29.79 in1008.8 mb 0.00 in0.0 mm 0.00 in0.0 mm 0.00 in0.0 mm
02:45 AM 67.6°F19.8°C 63.3°F17.4°C 86% Calm Calm 4.0 mph6.4 kmh 29.79 in1008.8 mb 0.00 in0.0 mm 0.00 in0.0 mm 0.00 in0.0 mm
03:00 AM 68.1°F20.1°C 63.1°F17.3°C 84% Calm Calm 4.0 mph6.4 kmh 29.79 in1008.8 mb 0.00 in0.0 mm 0.00 in0.0 mm 0.00 in0.0 mm
03:15 AM 68.4°F20.2°C 63.4°F17.4°C 84% Calm Calm 1.0 mph1.6 kmh 29.78 in1008.5 mb 0.00 in0.0 mm 0.00 in0.0 mm 0.00 in0.0 mm
03:30 AM 68.6°F20.3°C 63.6°F17.6°C 84% Calm Calm 2.0 mph3.2 kmh 29.78 in1008.5 mb 0.00 in0.0 mm 0.00 in0.0 mm 0.00 in0.0 mm
03:45 AM 68.7°F20.4°C 63.7°F17.6°C 84% Calm Calm 3.0 mph4.8 kmh 29.77 in1008.1 mb 0.00 in0.0 mm 0.00 in0.0 mm 0.00 in0.0 mm
04:00 AM 68.8°F20.4°C 63.4°F17.4°C 83% Calm Calm 3.0 mph4.8 kmh 29.77 in1008.1 mb 0.00 in0.0 mm 0.00 in0.0 mm 0.00 in0.0 mm
04:15 AM 68.8°F20.4°C 63.4°F17.4°C 83% Calm Calm 3.0 mph4.8 kmh 29.76 in1007.8 mb 0.00 in0.0 mm 0.00 in0.0 mm 0.00 in0.0 mm
04:30 AM 68.9°F20.5°C 63.5°F17.5°C 83% Calm Calm 3.0 mph4.8 kmh 29.76 in1007.8 mb 0.00 in0.0 mm 0.00 in0.0 mm 0.00 in0.0 mm
04:45 AM 69.0°F20.6°C 63.6°F17.6°C 83% Calm Calm 2.0 mph3.2 kmh 29.76 in1007.8 mb 0.00 in0.0 mm 0.00 in0.0 mm 0.00 in0.0 mm
05:00 AM 68.9°F20.5°C 63.5°F17.5°C 83% 2.0 mph WSW3.2 kmh WSW 3.0 mph4.8 kmh 29.76 in1007.8 mb 0.00 in0.0 mm 0.00 in0.0 mm 0.00 in0.0 mm
05:15 AM 69.0°F20.6°C 63.6°F17.6°C 83% Calm Calm 3.0 mph4.8 kmh 29.75 in1007.5 mb 0.00 in0.0 mm 0.00 in0.0 mm 0.00 in0.0 mm
05:30 AM 69.1°F20.6°C 64.1°F17.8°C 84% 1.0 mph WSW1.6 kmh WSW 3.0 mph4.8 kmh 29.74 in1007.1 mb 0.00 in0.0 mm 0.00 in0.0 mm 0.00 in0.0 mm
05:45 AM 69.0°F20.6°C 64.3°F17.9°C 85% Calm Calm 1.0 mph1.6 kmh 29.73 in1006.8 mb 0.00 in0.0 mm 0.00 in0.0 mm 0.00 in0.0 mm
06:00 AM 68.8°F20.4°C 64.5°F18.1°C 86% Calm Calm 1.0 mph1.6 kmh 29.73 in1006.8 mb 0.00 in0.0 mm 0.00 in0.0 mm 0.00 in0.0 mm
06:15 AM 68.3°F20.2°C 64.3°F17.9°C 87% Calm Calm -- 29.73 in1006.8 mb 0.00 in0.0 mm 0.00 in0.0 mm 0.00 in0.0 mm
06:30 AM 67.8°F19.9°C 64.1°F17.8°C 88% Calm Calm 1.0 mph1.6 kmh 29.72 in1006.4 mb 0.00 in0.0 mm 0.00 in0.0 mm 0.00 in0.0 mm
06:45 AM 67.4°F19.7°C 64.1°F17.8°C 89% Calm Calm -- 29.72 in1006.4 mb 0.00 in0.0 mm 0.00 in0.0 mm 0.00 in0.0 mm
07:00 AM 67.1°F19.5°C 64.1°F17.8°C 90% Calm Calm 2.0 mph3.2 kmh 29.72 in1006.4 mb 0.00 in0.0 mm 0.00 in0.0 mm 0.00 in0.0 mm
07:15 AM 67.0°F19.4°C 64.3°F17.9°C 91% Calm Calm -- 29.72 in1006.4 mb 0.00 in0.0 mm 0.00 in0.0 mm 0.00 in0.0 mm
07:30 AM 67.2°F19.6°C 64.8°F18.2°C 92% Calm Calm 3.0 mph4.8 kmh 29.72 in1006.4 mb 0.00 in0.0 mm 0.00 in0.0 mm 0.00 in0.0 mm
07:45 AM 67.3°F19.6°C 64.9°F18.3°C 92% Calm Calm 1.0 mph1.6 kmh 29.72 in1006.4 mb 0.00 in0.0 mm 0.00 in0.0 mm 0.00 in0.0 mm
08:00 AM 67.4°F19.7°C 65.0°F18.3°C 92% Calm Calm 1.0 mph1.6 kmh 29.71 in1006.1 mb 0.00 in0.0 mm 0.00 in0.0 mm 0.00 in0.0 mm
08:15 AM 67.5°F19.7°C 65.4°F18.6°C 93% Calm Calm -- 29.71 in1006.1 mb 0.00 in0.0 mm 0.00 in0.0 mm 0.00 in0.0 mm
08:30 AM 67.5°F19.7°C 65.4°F18.6°C 93% Calm Calm -- 29.71 in1006.1 mb 0.00 in0.0 mm 0.00 in0.0 mm 0.00 in0.0 mm
08:45 AM 67.4°F19.7°C 65.3°F18.5°C 93% Calm Calm 1.0 mph1.6 kmh 29.72 in1006.4 mb 0.00 in0.0 mm 0.00 in0.0 mm 0.00 in0.0 mm
09:00 AM 67.3°F19.6°C 65.2°F18.4°C 93% Calm Calm 2.0 mph3.2 kmh 29.72 in1006.4 mb 0.00 in0.0 mm 0.00 in0.0 mm 0.00 in0.0 mm
09:15 AM 67.5°F19.7°C 65.4°F18.6°C 93% Calm Calm 3.0 mph4.8 kmh 29.72 in1006.4 mb 0.00 in0.0 mm 0.00 in0.0 mm 0.00 in0.0 mm
09:30 AM 67.7°F19.8°C 65.6°F18.7°C 93% Calm Calm 3.0 mph4.8 kmh 29.71 in1006.1 mb 0.00 in0.0 mm 0.00 in0.0 mm 0.00 in0.0 mm
09:45 AM 68.0°F20.0°C 65.9°F18.8°C 93% Calm Calm 2.0 mph3.2 kmh 29.71 in1006.1 mb 0.00 in0.0 mm 0.00 in0.0 mm 0.00 in0.0 mm
10:00 AM 68.2°F20.1°C 66.1°F18.9°C 93% Calm Calm 2.0 mph3.2 kmh 29.71 in1006.1 mb 0.00 in0.0 mm 0.00 in0.0 mm 0.00 in0.0 mm
10:15 AM 68.4°F20.2°C 66.3°F19.1°C 93% Calm Calm 2.0 mph3.2 kmh 29.70 in1005.8 mb 0.00 in0.0 mm 0.00 in0.0 mm 0.00 in0.0 mm
10:30 AM 68.7°F20.4°C 66.6°F19.2°C 93% Calm Calm 3.0 mph4.8 kmh 29.69 in1005.4 mb 0.00 in0.0 mm 0.00 in0.0 mm 0.00 in0.0 mm
10:45 AM 68.9°F20.5°C 66.5°F19.2°C 92% Calm Calm 2.0 mph3.2 kmh 29.70 in1005.8 mb 0.00 in0.0 mm 0.00 in0.0 mm 0.00 in0.0 mm
11:00 AM 69.1°F20.6°C 66.7°F19.3°C 92% Calm Calm 2.0 mph3.2 kmh 29.70 in1005.8 mb 0.00 in0.0 mm 0.00 in0.0 mm 0.00 in0.0 mm
11:15 AM 69.3°F20.7°C 66.9°F19.4°C 92% Calm Calm 1.0 mph1.6 kmh 29.69 in1005.4 mb 0.00 in0.0 mm 0.00 in0.0 mm 0.00 in0.0 mm
11:30 AM 69.5°F20.8°C 67.1°F19.5°C 92% Calm Calm 1.0 mph1.6 kmh 29.69 in1005.4 mb 0.00 in0.0 mm 0.00 in0.0 mm 0.00 in0.0 mm
11:45 AM 69.6°F20.9°C 67.2°F19.6°C 92% Calm Calm -- 29.68 in1005.1 mb 0.00 in0.0 mm 0.00 in0.0 mm 0.00 in0.0 mm
12:00 PM 69.8°F21.0°C 67.7°F19.8°C 93% Calm Calm 1.0 mph1.6 kmh 29.68 in1005.1 mb 0.00 in0.0 mm 0.00 in0.0 mm 0.00 in0.0 mm
12:15 PM 69.8°F21.0°C 67.7°F19.8°C 93% Calm Calm -- 29.66 in1004.4 mb 0.00 in0.0 mm 0.00 in0.0 mm 0.00 in0.0 mm
12:30 PM 70.0°F21.1°C 67.9°F19.9°C 93% Calm Calm 1.0 mph1.6 kmh 29.66 in1004.4 mb 0.00 in0.0 mm 0.00 in0.0 mm 0.00 in0.0 mm
12:45 PM 70.3°F21.3°C 68.2°F20.1°C 93% Calm Calm 1.0 mph1.6 kmh 29.66 in1004.4 mb 0.00 in0.0 mm 0.00 in0.0 mm 0.00 in0.0 mm
01:00 PM 70.8°F21.6°C 68.4°F20.2°C 92% Calm Calm 3.0 mph4.8 kmh 29.66 in1004.4 mb 0.00 in0.0 mm 0.00 in0.0 mm 0.00 in0.0 mm
01:15 PM 71.2°F21.8°C 68.4°F20.2°C 91% Calm Calm 1.0 mph1.6 kmh 29.65 in1004.1 mb 0.00 in0.0 mm 0.00 in0.0 mm 0.00 in0.0 mm
01:30 PM 71.5°F21.9°C 68.1°F20.1°C 89% Calm Calm 1.0 mph1.6 kmh 29.65 in1004.1 mb 0.00 in0.0 mm 0.00 in0.0 mm 0.00 in0.0 mm
01:45 PM 71.8°F22.1°C 68.4°F20.2°C 89% Calm Calm -- 29.64 in1003.7 mb 0.00 in0.0 mm 0.00 in0.0 mm 0.00 in0.0 mm
02:00 PM 72.1°F22.3°C 68.7°F20.4°C 89% Calm Calm 3.0 mph4.8 kmh 29.64 in1003.7 mb 0.00 in0.0 mm 0.00 in0.0 mm 0.00 in0.0 mm
02:15 PM 72.3°F22.4°C 68.6°F20.3°C 88% Calm Calm 1.0 mph1.6 kmh 29.63 in1003.4 mb 0.00 in0.0 mm 0.00 in0.0 mm 0.00 in0.0 mm
02:30 PM 72.5°F22.5°C 68.8°F20.4°C 88% Calm Calm 1.0 mph1.6 kmh 29.63 in1003.4 mb 0.00 in0.0 mm 0.00 in0.0 mm 0.00 in0.0 mm
02:45 PM 72.5°F22.5°C 68.4°F20.2°C 87% Calm Calm -- 29.63 in1003.4 mb 0.00 in0.0 mm 0.00 in0.0 mm 0.00 in0.0 mm
03:00 PM 72.6°F22.6°C 68.5°F20.3°C 87% Calm Calm -- 29.62 in1003.0 mb 0.00 in0.0 mm 0.00 in0.0 mm 0.00 in0.0 mm
03:15 PM 72.7°F22.6°C 68.3°F20.2°C 86% Calm Calm 2.0 mph3.2 kmh 29.62 in1003.0 mb 0.00 in0.0 mm 0.00 in0.0 mm 0.00 in0.0 mm
03:30 PM 72.8°F22.7°C 68.4°F20.2°C 86% Calm Calm 2.0 mph3.2 kmh 29.61 in1002.7 mb 0.00 in0.0 mm 0.00 in0.0 mm 0.00 in0.0 mm
03:45 PM 72.9°F22.7°C 68.5°F20.3°C 86% Calm Calm 1.0 mph1.6 kmh 29.60 in1002.4 mb 0.00 in0.0 mm 0.00 in0.0 mm 0.00 in0.0 mm
04:00 PM 73.0°F22.8°C 68.6°F20.3°C 86% Calm Calm 1.0 mph1.6 kmh 29.60 in1002.4 mb 0.00 in0.0 mm 0.00 in0.0 mm 0.00 in0.0 mm
04:15 PM 73.0°F22.8°C 69.2°F20.7°C 88% Calm Calm 2.0 mph3.2 kmh 29.60 in1002.4 mb 0.00 in0.0 mm 0.00 in0.0 mm 0.00 in0.0 mm
04:30 PM 72.6°F22.6°C 68.5°F20.3°C 87% Calm Calm 3.0 mph4.8 kmh 29.59 in1002.0 mb 0.00 in0.0 mm 0.00 in0.0 mm 0.00 in0.0 mm
04:45 PM 72.4°F22.4°C 68.7°F20.4°C 88% Calm Calm 2.0 mph3.2 kmh 29.60 in1002.4 mb 0.00 in0.0 mm 0.00 in0.0 mm 0.00 in0.0 mm
05:00 PM 72.1°F22.3°C 68.7°F20.4°C 89% Calm Calm 2.0 mph3.2 kmh 29.59 in1002.0 mb 0.00 in0.0 mm 0.00 in0.0 mm 0.00 in0.0 mm
05:15 PM 71.7°F22.1°C 68.6°F20.3°C 90% Calm Calm -- 29.58 in1001.7 mb 0.00 in0.0 mm 0.00 in0.0 mm 0.00 in0.0 mm
05:30 PM 71.4°F21.9°C 68.6°F20.3°C 91% Calm Calm -- 29.58 in1001.7 mb 0.00 in0.0 mm 0.00 in0.0 mm 0.00 in0.0 mm
05:45 PM 71.1°F21.7°C 68.7°F20.4°C 92% Calm Calm -- 29.58 in1001.7 mb 0.00 in0.0 mm 0.00 in0.0 mm 0.00 in0.0 mm
06:00 PM 70.9°F21.6°C 68.8°F20.4°C 93% Calm Calm 3.0 mph4.8 kmh 29.58 in1001.7 mb 0.01 in0.3 mm 0.01 in0.3 mm 0.01 in0.3 mm
06:15 PM 70.7°F21.5°C 68.6°F20.3°C 93% Calm Calm 3.0 mph4.8 kmh 29.58 in1001.7 mb 0.01 in0.3 mm 0.00 in0.0 mm 0.01 in0.3 mm
06:30 PM 70.4°F21.3°C 68.3°F20.2°C 93% Calm Calm 3.0 mph4.8 kmh 29.57 in1001.4 mb 0.01 in0.3 mm 0.00 in0.0 mm 0.01 in0.3 mm
06:45 PM 70.2°F21.2°C 68.1°F20.1°C 93% Calm Calm 2.0 mph3.2 kmh 29.57 in1001.4 mb 0.03 in0.8 mm 0.08 in2.0 mm 0.03 in0.8 mm
07:00 PM 69.9°F21.1°C 67.8°F19.9°C 93% Calm Calm 2.0 mph3.2 kmh 29.57 in1001.4 mb 0.04 in1.0 mm 0.01 in0.3 mm 0.04 in1.0 mm
07:15 PM 69.6°F20.9°C 67.8°F19.9°C 94% Calm Calm -- 29.57 in1001.4 mb 0.03 in0.8 mm 0.00 in0.0 mm 0.04 in1.0 mm
07:30 PM 69.2°F20.7°C 67.1°F19.5°C 93% Calm Calm 1.0 mph1.6 kmh 29.57 in1001.4 mb 0.05 in1.3 mm 0.08 in2.0 mm 0.06 in1.5 mm
07:45 PM 68.6°F20.3°C 66.8°F19.3°C 94% Calm Calm 1.0 mph1.6 kmh 29.57 in1001.4 mb 0.13 in3.3 mm 0.32 in8.1 mm 0.14 in3.6 mm
08:00 PM 68.0°F20.0°C 66.2°F19.0°C 94% Calm Calm 1.0 mph1.6 kmh 29.57 in1001.4 mb 0.30 in7.6 mm 0.23 in5.8 mm 0.31 in7.9 mm
08:15 PM 67.6°F19.8°C 65.8°F18.8°C 94% Calm Calm -- 29.57 in1001.4 mb 0.50 in12.7 mm 0.80 in20.3 mm 0.51 in13.0 mm
08:30 PM 67.3°F19.6°C 65.5°F18.6°C 94% Calm Calm -- 29.57 in1001.4 mb 0.64 in16.3 mm 0.56 in14.2 mm 0.65 in16.5 mm
08:45 PM 67.1°F19.5°C 65.6°F18.7°C 95% Calm Calm -- 29.57 in1001.4 mb 0.65 in16.5 mm 0.04 in1.0 mm 0.66 in16.8 mm
09:00 PM 66.9°F19.4°C 65.4°F18.6°C 95% Calm Calm -- 29.56 in1001.0 mb 0.68 in17.3 mm 0.04 in1.0 mm 0.69 in17.5 mm
09:15 PM 66.8°F19.3°C 65.3°F18.5°C 95% Calm Calm -- 29.56 in1001.0 mb 0.36 in9.1 mm 0.00 in0.0 mm 0.69 in17.5 mm
09:30 PM 66.6°F19.2°C 65.1°F18.4°C 95% Calm Calm -- 29.56 in1001.0 mb 0.38 in9.7 mm 0.08 in2.0 mm 0.71 in18.0 mm
09:45 PM 66.5°F19.2°C 65.3°F18.5°C 96% Calm Calm -- 29.56 in1001.0 mb 0.13 in3.3 mm 0.00 in0.0 mm 0.71 in18.0 mm
10:00 PM 66.3°F19.1°C 65.1°F18.4°C 96% Calm Calm -- 29.55 in1000.7 mb 0.14 in3.6 mm 0.01 in0.3 mm 0.72 in18.3 mm
10:15 PM 66.1°F18.9°C 64.9°F18.3°C 96% Calm Calm -- 29.55 in1000.7 mb 0.06 in1.5 mm 0.00 in0.0 mm 0.72 in18.3 mm
10:30 PM 65.9°F18.8°C 64.7°F18.2°C 96% Calm Calm -- 29.55 in1000.7 mb 0.06 in1.5 mm 0.00 in0.0 mm 0.72 in18.3 mm
10:45 PM 65.8°F18.8°C 64.6°F18.1°C 96% Calm Calm -- 29.55 in1000.7 mb 0.03 in0.8 mm 0.00 in0.0 mm 0.72 in18.3 mm
11:00 PM 65.6°F18.7°C 64.4°F18.0°C 96% Calm Calm -- 29.55 in1000.7 mb 0.03 in0.8 mm 0.00 in0.0 mm 0.72 in18.3 mm
11:15 PM 65.5°F18.6°C 64.3°F17.9°C 96% Calm Calm -- 29.54 in1000.3 mb 0.01 in0.3 mm 0.00 in0.0 mm 0.72 in18.3 mm
11:30 PM 65.4°F18.6°C 64.2°F17.9°C 96% Calm Calm -- 29.54 in1000.3 mb 0.01 in0.3 mm 0.00 in0.0 mm 0.72 in18.3 mm
11:45 PM 65.3°F18.5°C 64.1°F17.8°C 96% Calm Calm -- 29.53 in1000.0 mb 0.00 in0.0 mm 0.00 in0.0 mm 0.72 in18.3 mm